New Middletown, Indiana
Current Conditions -  °F | °C
As of 8:56 AM on Thursday 23 Oct 2014 (Local Time) from KSDF Reporting Station
Haze Haze  
Wind Chill: 38°   Ceiling: Unl
Heat Index: 42°   Visibility: 6mi
Dew Point: 39°   Wind: 7mph
Humidity: 89%   Direction: 230°SW
Pressure: 30.26"   Gusts: NA
Location:  38.16°N, 86.05°W
Report Text: KSDF 231256Z 23006KT 6SM BR SCT250 06/04 A3026 RMK AO2 SLP247 T00560039
Loading
Personal Weather Stations






























Interactive Weather Map
Tropical Storm Tracking
New forecast layout! Learn more

10-Day Weather Forecast

Advertisements
Track Severe Weather on mobile